Time;durP1;ratioP1;P1;durP2;ratioP2;P2;SDS_P1;SDS_P2;PMS_P1;PMS_P2;Temp;Humidity;BMP_temperature;BMP_pressure;BME280_temperature;BME280_humidity;BME280_pressure;Samples;Min_cycle;Max_cycle;Signal;HPM_P1;HPM_P2
2022/01/23 00:02:06;;;;;;;25.87;19.27;;;;;;;;;;5057230;28;20036;-71
2022/01/23 00:04:31;;;;;;;;;;;;;;;;;;5053005;28;20037;-70
2022/01/23 00:06:59;;;;;;;25.83;18.38;;;;;;;;;;5061957;28;19935;-70
2022/01/23 00:09:24;;;;;;;28.98;20.75;;;;;;;;;;5058767;28;20089;-71
2022/01/23 00:11:53;;;;;;;34.13;21.75;;;;;;;;;;5053791;28;20450;-70
2022/01/23 00:17:17;;;;;;;29.05;20.10;;;;;;;;;;5057599;28;20033;-71
2022/01/23 00:20:04;;;;;;;37.47;20.95;;;;;;;;;;5056417;28;20037;-70
2022/01/23 00:22:39;;;;;;;26.23;19.70;;;;;;;;;;5053091;28;20082;-71
2022/01/23 00:30:35;;;;;;;35.33;22.98;;;;;;;;;;5062546;28;20443;-71
2022/01/23 00:33:04;;;;;;;38.30;23.58;;;;;;;;;;5047953;28;20040;-71
2022/01/23 00:35:31;;;;;;;34.10;22.13;;;;;;;;;;5040726;28;20042;-70
2022/01/23 00:38:00;;;;;;;35.75;21.38;;;;;;;;;;5062640;28;20083;-71
2022/01/23 00:40:28;;;;;;;34.55;23.67;;;;;;;;;;5048214;28;20147;-71
2022/01/23 00:42:55;;;;;;;35.40;23.38;;;;;;;;;;5045940;28;20495;-71
2022/01/23 00:47:54;;;;;;;31.88;20.83;;;;;;;;;;5064021;28;20404;-71
2022/01/23 00:50:20;;;;;;;32.67;20.70;;;;;;;;;;5061250;28;20042;-71
2022/01/23 00:52:46;;;;;;;30.75;20.60;;;;;;;;;;5061753;28;20036;-70
2022/01/23 00:55:11;;;;;;;30.63;20.63;;;;;;;;;;5047063;28;20033;-70
2022/01/23 00:57:37;;;;;;;37.63;22.52;;;;;;;;;;5073122;28;20435;-71
2022/01/23 01:00:08;;;;;;;29.77;19.83;;;;;;;;;;5047693;28;20029;-70
2022/01/23 01:02:34;;;;;;;24.80;20.10;;;;;;;;;;5046093;28;20059;-71
2022/01/23 01:04:59;;;;;;;29.02;20.63;;;;;;;;;;5049570;28;20654;-71
2022/01/23 01:07:25;;;;;;;31.38;20.20;;;;;;;;;;5049706;28;20398;-71
2022/01/23 01:09:53;;;;;;;25.10;18.55;;;;;;;;;;5049110;28;20098;-72
2022/01/23 01:12:24;;;;;;;27.50;18.88;;;;;;;;;;5058250;28;20044;-71
2022/01/23 01:30:07;;;;;;;32.97;22.13;;;;;;;;;;5050238;28;20036;-71
2022/01/23 01:31:42;;;;;;;31.83;20.48;;;;;;;;;;5030070;28;20041;-71
2022/01/23 01:34:13;;;;;;;35.22;21.88;;;;;;;;;;5055556;28;20821;-70
2022/01/23 01:36:47;;;;;;;32.15;22.33;;;;;;;;;;5051138;28;20045;-71
2022/01/23 01:39:16;;;;;;;33.08;21.55;;;;;;;;;;5046598;28;20037;-71
2022/01/23 01:41:43;;;;;;;36.42;22.88;;;;;;;;;;5049469;28;20086;-71
2022/01/23 01:44:11;;;;;;;31.35;21.23;;;;;;;;;;5049586;28;20037;-71
2022/01/23 01:46:51;;;;;;;35.75;21.02;;;;;;;;;;5052949;28;20040;-71
2022/01/23 01:49:26;;;;;;;38.28;23.98;;;;;;;;;;5054031;28;20277;-71
2022/01/23 01:51:53;;;;;;;33.47;22.90;;;;;;;;;;5065875;28;20029;-71
2022/01/23 01:54:21;;;;;;;37.40;23.63;;;;;;;;;;5051386;28;20028;-70
2022/01/23 01:57:02;;;;;;;34.08;21.77;;;;;;;;;;5058691;28;20048;-71
2022/01/23 02:10:50;;;;;;;37.13;22.70;;;;;;;;;;5053920;28;20029;-70
2022/01/23 02:13:27;;;;;;;44.03;25.73;;;;;;;;;;5054645;28;20238;-71
2022/01/23 02:51:57;;;;;;;35.83;22.48;;;;;;;;;;5049665;28;20029;-71
2022/01/23 02:57:09;;;;;;;36.60;22.52;;;;;;;;;;5056973;28;20102;-71
2022/01/23 02:59:39;;;;;;;36.15;24.17;;;;;;;;;;5064517;28;20029;-70
2022/01/23 03:02:47;;;;;;;35.78;21.65;;;;;;;;;;5007771;28;20049;-71
2022/01/23 03:10:46;;;;;;;34.13;22.08;;;;;;;;;;4993308;28;20037;-71
2022/01/23 03:24:17;;;;;;;41.00;24.75;;;;;;;;;;5003215;28;20091;-70
2022/01/23 03:30:36;;;;;;;39.05;24.17;;;;;;;;;;4957110;28;20057;-71
2022/01/23 03:32:33;;;;;;;38.72;24.38;;;;;;;;;;4993979;28;20057;-70
2022/01/23 03:34:58;;;;;;;44.90;24.80;;;;;;;;;;5063277;28;20508;-70
2022/01/23 03:37:24;;;;;;;44.17;24.90;;;;;;;;;;5037817;28;20040;-71
2022/01/23 03:39:50;;;;;;;40.35;23.33;;;;;;;;;;5047494;28;20048;-71
2022/01/23 03:42:15;;;;;;;38.53;22.95;;;;;;;;;;5036616;28;20487;-71
2022/01/23 03:44:52;;;;;;;47.13;24.67;;;;;;;;;;5046071;28;20328;-71
2022/01/23 03:47:32;;;;;;;41.08;23.75;;;;;;;;;;5061787;28;20075;-71
2022/01/23 03:49:59;;;;;;;39.83;24.15;;;;;;;;;;5047008;28;20041;-71
2022/01/23 03:52:42;;;;;;;40.08;24.55;;;;;;;;;;5045453;28;20033;-71
2022/01/23 03:55:09;;;;;;;43.53;26.00;;;;;;;;;;5068907;28;20029;-70
2022/01/23 03:57:37;;;;;;;44.00;25.40;;;;;;;;;;5058068;28;20044;-72
2022/01/23 04:00:05;;;;;;;40.92;24.73;;;;;;;;;;5046215;28;20356;-71
2022/01/23 04:02:39;;;;;;;49.08;24.98;;;;;;;;;;5045311;28;20048;-71
2022/01/23 04:05:06;;;;;;;42.80;26.15;;;;;;;;;;5055720;28;20036;-71
2022/01/23 04:07:34;;;;;;;41.30;25.02;;;;;;;;;;5063286;28;20040;-71
2022/01/23 04:09:59;;;;;;;43.83;25.52;;;;;;;;;;5061802;28;20045;-70
2022/01/23 04:33:58;;;;;;;53.80;27.77;;;;;;;;;;5056666;28;20072;-71
2022/01/23 05:01:05;;;;;;;48.30;26.20;;;;;;;;;;5052585;28;20074;-70
2022/01/23 05:04:05;;;;;;;51.97;28.58;;;;;;;;;;5060683;28;20569;-72
2022/01/23 05:07:03;;;;;;;52.00;28.15;;;;;;;;;;5046648;28;20044;-70
2022/01/23 05:09:49;;;;;;;51.25;27.80;;;;;;;;;;5049415;28;20555;-70
2022/01/23 05:12:24;;;;;;;48.28;26.67;;;;;;;;;;5045159;28;20214;-70
2022/01/23 05:14:51;;;;;;;55.10;29.40;;;;;;;;;;5056901;28;20452;-70
2022/01/23 05:17:18;;;;;;;56.80;28.35;;;;;;;;;;5046796;28;20037;-70
2022/01/23 05:19:44;;;;;;;49.00;27.05;;;;;;;;;;5047831;28;20153;-70
2022/01/23 05:22:21;;;;;;;54.25;26.77;;;;;;;;;;5060713;28;20059;-70
2022/01/23 05:24:54;;;;;;;46.15;26.00;;;;;;;;;;5047269;28;20033;-70
2022/01/23 05:27:22;;;;;;;42.35;24.92;;;;;;;;;;5060836;28;20098;-70
2022/01/23 05:29:48;;;;;;;46.33;26.90;;;;;;;;;;5038781;28;20032;-70
2022/01/23 05:32:14;;;;;;;57.47;29.70;;;;;;;;;;5044966;28;20126;-70
2022/01/23 05:34:42;;;;;;;60.70;28.83;;;;;;;;;;5046897;28;20089;-70
2022/01/23 05:37:13;;;;;;;60.90;30.50;;;;;;;;;;5039953;28;20041;-70
2022/01/23 05:39:42;;;;;;;61.70;29.92;;;;;;;;;;5047756;28;20032;-70
2022/01/23 05:42:09;;;;;;;63.78;30.80;;;;;;;;;;5063990;28;20086;-70
2022/01/23 05:44:37;;;;;;;74.25;31.48;;;;;;;;;;5045277;28;20033;-70
2022/01/23 05:47:05;;;;;;;68.43;31.95;;;;;;;;;;5044928;28;20024;-70
2022/01/23 05:49:45;;;;;;;83.07;34.13;;;;;;;;;;5046606;28;20028;-70
2022/01/23 05:52:31;;;;;;;78.32;32.25;;;;;;;;;;5047515;28;20492;-70
2022/01/23 05:55:05;;;;;;;67.28;30.23;;;;;;;;;;5047229;28;20499;-70
2022/01/23 05:57:57;;;;;;;60.58;30.63;;;;;;;;;;5039037;28;20419;-70
2022/01/23 06:00:35;;;;;;;70.00;31.02;;;;;;;;;;5052480;28;20188;-70
2022/01/23 06:03:06;;;;;;;71.35;31.23;;;;;;;;;;5051561;28;20115;-70
2022/01/23 06:05:39;;;;;;;60.10;29.25;;;;;;;;;;5048476;28;20099;-70
2022/01/23 06:08:12;;;;;;;70.47;30.77;;;;;;;;;;5052442;28;20064;-70
2022/01/23 06:10:53;;;;;;;66.43;30.23;;;;;;;;;;5065772;28;20068;-70
2022/01/23 06:13:23;;;;;;;60.70;29.45;;;;;;;;;;5062353;28;20040;-70
2022/01/23 06:15:48;;;;;;;59.70;29.33;;;;;;;;;;5071192;28;20029;-70
2022/01/23 06:18:14;;;;;;;63.35;30.15;;;;;;;;;;5053361;28;20399;-70
2022/01/23 06:20:58;;;;;;;50.78;28.33;;;;;;;;;;5053890;28;20029;-70
2022/01/23 06:23:29;;;;;;;66.47;29.42;;;;;;;;;;5048644;28;20404;-70
2022/01/23 06:26:10;;;;;;;56.92;27.38;;;;;;;;;;5063880;28;20033;-70
2022/01/23 06:29:01;;;;;;;58.13;28.45;;;;;;;;;;5059549;28;20098;-70
2022/01/23 06:31:27;;;;;;;62.00;31.60;;;;;;;;;;5049071;28;20550;-70
2022/01/23 06:33:53;;;;;;;47.90;26.25;;;;;;;;;;5059020;28;20040;-70
2022/01/23 06:36:18;;;;;;;52.65;28.70;;;;;;;;;;5060882;28;20399;-70
2022/01/23 06:38:45;;;;;;;60.60;27.83;;;;;;;;;;5054471;28;20044;-70
2022/01/23 06:41:10;;;;;;;50.30;27.73;;;;;;;;;;5065991;28;20029;-70
2022/01/23 06:43:46;;;;;;;53.25;27.83;;;;;;;;;;5047684;28;20047;-70
2022/01/23 06:46:18;;;;;;;50.90;28.83;;;;;;;;;;5066276;28;20068;-70
2022/01/23 06:48:44;;;;;;;53.35;28.55;;;;;;;;;;5063909;28;20032;-69
2022/01/23 06:51:10;;;;;;;58.75;29.48;;;;;;;;;;5049970;28;20041;-69
2022/01/23 06:53:35;;;;;;;48.83;28.25;;;;;;;;;;5046207;28;20112;-70
2022/01/23 06:56:01;;;;;;;51.90;28.25;;;;;;;;;;5051028;28;20121;-69
2022/01/23 06:58:27;;;;;;;55.97;29.33;;;;;;;;;;5059506;28;20500;-70
2022/01/23 07:00:53;;;;;;;55.60;28.50;;;;;;;;;;5046734;28;20324;-70
2022/01/23 07:03:44;;;;;;;46.97;27.90;;;;;;;;;;5064694;28;20041;-70
2022/01/23 07:06:45;;;;;;;51.97;28.52;;;;;;;;;;5006020;28;20038;-71
2022/01/23 07:09:18;;;;;;;51.90;28.30;;;;;;;;;;5046401;28;20048;-71
2022/01/23 07:12:07;;;;;;;53.65;28.80;;;;;;;;;;5048749;28;20900;-71
2022/01/23 07:14:51;;;;;;;47.83;25.80;;;;;;;;;;5046009;28;20057;-70
2022/01/23 07:17:29;;;;;;;45.92;25.95;;;;;;;;;;5048443;28;20040;-71
2022/01/23 07:20:01;;;;;;;50.92;28.23;;;;;;;;;;5046405;28;20047;-71
2022/01/23 07:22:34;;;;;;;81.78;45.03;;;;;;;;;;5047118;28;20036;-71
2022/01/23 07:25:03;;;;;;;54.92;26.92;;;;;;;;;;5064170;28;20037;-71
2022/01/23 07:27:37;;;;;;;47.20;27.25;;;;;;;;;;5046570;28;20041;-71
2022/01/23 07:30:07;;;;;;;48.08;28.38;;;;;;;;;;5064018;28;20032;-71
2022/01/23 07:32:32;;;;;;;;;;;;;;;;;;5048609;28;20077;-72
2022/01/23 07:34:59;;;;;;;108.18;55.80;;;;;;;;;;5055307;28;20545;-70
2022/01/23 07:37:24;;;;;;;55.90;27.85;;;;;;;;;;5048902;28;20248;-69
2022/01/23 07:40:09;;;;;;;54.13;30.83;;;;;;;;;;5060164;28;20036;-71
2022/01/23 07:42:40;;;;;;;49.20;29.25;;;;;;;;;;5050582;28;20094;-71
2022/01/23 07:45:24;;;;;;;52.28;27.98;;;;;;;;;;5047963;28;20073;-71
2022/01/23 07:48:09;;;;;;;48.85;27.55;;;;;;;;;;5042963;28;20040;-71
2022/01/23 07:50:55;;;;;;;46.58;28.63;;;;;;;;;;5056677;28;20080;-71
2022/01/23 07:53:43;;;;;;;49.97;28.27;;;;;;;;;;5043066;28;20163;-69
2022/01/23 07:56:32;;;;;;;48.03;28.03;;;;;;;;;;5043181;28;20322;-69
2022/01/23 07:59:23;;;;;;;51.60;28.15;;;;;;;;;;5046480;28;20304;-70
2022/01/23 08:02:18;;;;;;;47.60;28.20;;;;;;;;;;5042810;28;20044;-71
2022/01/23 08:05:10;;;;;;;44.25;28.70;;;;;;;;;;5047440;28;20055;-71
2022/01/23 08:07:38;;;;;;;54.25;28.08;;;;;;;;;;5050106;28;20033;-71
2022/01/23 08:10:23;;;;;;;53.17;27.27;;;;;;;;;;5041159;28;20548;-71
2022/01/23 08:12:48;;;;;;;49.03;30.50;;;;;;;;;;5046470;28;20167;-71
2022/01/23 08:15:15;;;;;;;48.47;28.83;;;;;;;;;;5045143;28;20068;-71
2022/01/23 08:17:41;;;;;;;47.20;26.80;;;;;;;;;;5047717;28;20040;-71
2022/01/23 08:20:07;;;;;;;46.85;27.65;;;;;;;;;;5058772;28;20492;-71
2022/01/23 08:22:33;;;;;;;46.25;27.50;;;;;;;;;;5048442;28;20041;-71
2022/01/23 08:25:01;;;;;;;44.88;28.23;;;;;;;;;;5049002;28;20374;-71
2022/01/23 08:27:28;;;;;;;46.78;28.42;;;;;;;;;;5047120;28;20033;-71
2022/01/23 08:29:54;;;;;;;48.53;26.70;;;;;;;;;;5047136;28;20021;-71
2022/01/23 08:32:20;;;;;;;135.15;60.05;;;;;;;;;;5050088;28;20041;-71
2022/01/23 08:34:46;;;;;;;49.47;28.70;;;;;;;;;;5045244;28;20425;-71
2022/01/23 08:37:11;;;;;;;48.47;26.58;;;;;;;;;;5047011;28;20072;-71
2022/01/23 08:39:39;;;;;;;42.83;26.02;;;;;;;;;;5059513;28;20043;-71
2022/01/23 08:42:09;;;;;;;47.17;28.45;;;;;;;;;;5054713;28;20181;-71
2022/01/23 08:44:35;;;;;;;48.35;27.45;;;;;;;;;;5049801;28;20032;-71
2022/01/23 08:47:02;;;;;;;40.13;25.35;;;;;;;;;;5047835;28;20342;-71
2022/01/23 08:49:29;;;;;;;44.60;25.33;;;;;;;;;;5045871;28;20047;-71
2022/01/23 08:51:56;;;;;;;45.63;26.63;;;;;;;;;;5049114;28;20064;-71
2022/01/23 08:54:23;;;;;;;42.55;23.83;;;;;;;;;;5045865;28;20049;-71
2022/01/23 08:56:49;;;;;;;36.72;24.45;;;;;;;;;;5045685;28;20552;-71
2022/01/23 08:59:14;;;;;;;43.20;26.83;;;;;;;;;;5045576;28;20048;-71
2022/01/23 09:01:40;;;;;;;48.08;27.15;;;;;;;;;;5044185;28;20503;-71
2022/01/23 09:04:07;;;;;;;43.53;27.02;;;;;;;;;;5041907;28;20325;-71
2022/01/23 09:06:33;;;;;;;44.05;26.45;;;;;;;;;;5060105;28;20052;-71
2022/01/23 09:09:00;;;;;;;46.55;30.20;;;;;;;;;;5061734;28;20123;-71
2022/01/23 09:11:40;;;;;;;43.33;26.35;;;;;;;;;;5044903;28;20088;-71
2022/01/23 09:14:07;;;;;;;45.92;27.40;;;;;;;;;;5045659;28;20033;-71
2022/01/23 09:16:38;;;;;;;43.58;25.67;;;;;;;;;;5046775;28;20380;-71
2022/01/23 09:19:04;;;;;;;43.25;26.42;;;;;;;;;;5047792;28;20045;-72
2022/01/23 09:21:30;;;;;;;40.28;26.10;;;;;;;;;;5046342;28;20037;-71
2022/01/23 09:23:56;;;;;;;44.00;26.38;;;;;;;;;;5052147;28;20036;-71
2022/01/23 09:26:23;;;;;;;45.97;28.13;;;;;;;;;;5054395;28;20036;-71
2022/01/23 09:28:52;;;;;;;41.70;26.60;;;;;;;;;;5049206;28;20040;-71
2022/01/23 09:31:27;;;;;;;46.30;27.63;;;;;;;;;;5049927;28;20044;-71
2022/01/23 09:33:53;;;;;;;40.67;25.75;;;;;;;;;;5056671;28;20167;-71
2022/01/23 09:36:19;;;;;;;37.60;26.58;;;;;;;;;;5050381;28;20039;-71
2022/01/23 09:38:44;;;;;;;36.00;25.30;;;;;;;;;;5053362;28;20043;-71
2022/01/23 09:41:10;;;;;;;41.97;25.92;;;;;;;;;;5048769;28;20143;-71
2022/01/23 09:43:39;;;;;;;42.30;25.48;;;;;;;;;;5048257;28;20037;-71
2022/01/23 09:46:07;;;;;;;37.55;25.77;;;;;;;;;;5050051;28;20068;-71
2022/01/23 09:48:34;;;;;;;35.07;23.93;;;;;;;;;;5048968;28;20029;-71
2022/01/23 09:51:00;;;;;;;33.40;24.23;;;;;;;;;;5053444;28;20041;-71
2022/01/23 09:53:27;;;;;;;40.72;25.63;;;;;;;;;;5050272;28;20332;-71
2022/01/23 09:55:58;;;;;;;39.70;25.65;;;;;;;;;;5053111;28;20450;-71
2022/01/23 09:58:24;;;;;;;92.15;38.40;;;;;;;;;;5046309;28;20055;-71
2022/01/23 10:00:50;;;;;;;39.97;26.45;;;;;;;;;;5053642;28;20040;-71
2022/01/23 10:03:19;;;;;;;39.65;26.67;;;;;;;;;;5041241;28;20036;-71
2022/01/23 10:05:52;;;;;;;40.28;26.40;;;;;;;;;;5043056;28;20032;-71
2022/01/23 10:08:18;;;;;;;34.92;23.20;;;;;;;;;;5046423;28;20095;-71
2022/01/23 10:10:50;;;;;;;37.55;24.25;;;;;;;;;;5049451;28;20036;-71
2022/01/23 10:13:16;;;;;;;36.08;23.95;;;;;;;;;;5048138;28;20040;-72
2022/01/23 10:15:42;;;;;;;39.20;25.05;;;;;;;;;;5046592;28;20112;-71
2022/01/23 10:18:08;;;;;;;39.00;23.95;;;;;;;;;;5046621;28;20120;-71
2022/01/23 10:20:34;;;;;;;35.42;25.10;;;;;;;;;;5045621;28;20511;-71
2022/01/23 10:22:59;;;;;;;33.92;24.15;;;;;;;;;;5047100;28;20036;-71
2022/01/23 10:25:28;;;;;;;34.55;24.02;;;;;;;;;;5046666;28;20032;-71
2022/01/23 10:27:59;;;;;;;34.83;24.40;;;;;;;;;;5047989;28;20523;-71
2022/01/23 10:30:27;;;;;;;39.35;29.17;;;;;;;;;;5044064;28;20036;-71
2022/01/23 10:32:58;;;;;;;31.42;24.00;;;;;;;;;;5050550;28;20522;-71
2022/01/23 10:35:25;;;;;;;39.88;26.40;;;;;;;;;;5049916;28;20215;-71
2022/01/23 10:37:52;;;;;;;38.50;23.83;;;;;;;;;;5054442;28;20056;-71
2022/01/23 10:40:35;;;;;;;33.95;23.75;;;;;;;;;;5042086;28;20104;-71
2022/01/23 10:48:41;;;;;;;36.42;25.83;;;;;;;;;;5045718;28;20047;-71
2022/01/23 10:51:16;;;;;;;32.60;23.30;;;;;;;;;;5048212;28;20040;-71
2022/01/23 10:54:00;;;;;;;37.80;23.67;;;;;;;;;;5045388;28;20032;-71
2022/01/23 10:56:32;;;;;;;34.80;23.88;;;;;;;;;;5046624;28;20412;-71
2022/01/23 10:59:03;;;;;;;33.92;23.88;;;;;;;;;;5046716;28;20056;-71
2022/01/23 11:01:29;;;;;;;35.65;24.42;;;;;;;;;;5046137;28;20048;-71
2022/01/23 11:04:10;;;;;;;32.15;24.30;;;;;;;;;;5046037;28;20036;-71
2022/01/23 11:06:56;;;;;;;30.42;22.13;;;;;;;;;;5050658;28;20094;-71
2022/01/23 11:09:27;;;;;;;29.98;21.65;;;;;;;;;;5057857;28;20088;-72
2022/01/23 11:12:00;;;;;;;27.75;21.63;;;;;;;;;;5050871;28;20028;-72
2022/01/23 11:17:25;;;;;;;27.50;21.30;;;;;;;;;;5048224;28;20039;-72
2022/01/23 11:20:00;;;;;;;28.40;21.55;;;;;;;;;;5053079;28;20064;-72
2022/01/23 11:22:31;;;;;;;31.77;23.20;;;;;;;;;;5055584;28;20512;-73
2022/01/23 11:25:07;;;;;;;31.20;22.65;;;;;;;;;;5049691;28;20387;-73
2022/01/23 11:27:38;;;;;;;25.60;21.30;;;;;;;;;;5050745;28;20048;-73
2022/01/23 11:30:09;;;;;;;30.40;23.13;;;;;;;;;;5042782;28;20036;-73
2022/01/23 11:32:40;;;;;;;33.83;23.25;;;;;;;;;;5048267;28;20071;-73
2022/01/23 11:35:12;;;;;;;30.85;21.92;;;;;;;;;;5047321;28;20045;-72
2022/01/23 11:37:48;;;;;;;28.98;22.65;;;;;;;;;;5047141;28;20299;-72
2022/01/23 11:53:54;;;;;;;33.03;20.73;;;;;;;;;;5042054;28;20033;-71
2022/01/23 11:56:26;;;;;;;41.45;23.70;;;;;;;;;;5045959;28;20032;-71
2022/01/23 11:59:35;;;;;;;20.52;17.90;;;;;;;;;;5042990;28;20516;-71
2022/01/23 12:02:14;;;;;;;46.42;25.58;;;;;;;;;;5039729;28;20040;-71
2022/01/23 12:05:05;;;;;;;28.67;20.83;;;;;;;;;;5051840;28;20055;-71
2022/01/23 12:07:31;;;;;;;181.60;64.28;;;;;;;;;;5058061;28;20072;-71
2022/01/23 12:10:24;;;;;;;32.25;22.13;;;;;;;;;;5053891;28;20079;-72
2022/01/23 12:12:52;;;;;;;50.65;24.67;;;;;;;;;;5042206;28;20040;-71
2022/01/23 12:18:18;;;;;;;23.25;18.35;;;;;;;;;;5042328;28;20045;-71
2022/01/23 12:20:46;;;;;;;19.40;17.40;;;;;;;;;;5047307;28;20086;-72
2022/01/23 12:23:12;;;;;;;18.00;16.20;;;;;;;;;;5053763;28;20185;-72
2022/01/23 12:25:44;;;;;;;23.80;21.15;;;;;;;;;;5049209;28;20033;-72
2022/01/23 12:28:22;;;;;;;23.00;19.15;;;;;;;;;;5053946;28;20065;-71
2022/01/23 12:30:58;;;;;;;23.10;17.60;;;;;;;;;;5046513;28;20029;-72
2022/01/23 12:33:28;;;;;;;19.73;17.63;;;;;;;;;;5060274;28;20041;-72
2022/01/23 12:35:58;;;;;;;21.45;18.02;;;;;;;;;;5056592;28;20040;-71
2022/01/23 12:38:34;;;;;;;19.00;17.08;;;;;;;;;;5048057;28;20032;-71
2022/01/23 12:41:23;;;;;;;20.88;16.20;;;;;;;;;;5048895;28;20064;-71
2022/01/23 12:43:56;;;;;;;;;;;;;;;;;;5034844;28;20037;-71
2022/01/23 12:46:40;;;;;;;17.10;15.40;;;;;;;;;;5052355;28;19912;-70
2022/01/23 12:49:34;;;;;;;18.98;15.48;;;;;;;;;;5045755;28;20041;-71
2022/01/23 12:52:05;;;;;;;17.02;15.40;;;;;;;;;;5045688;28;20043;-71
2022/01/23 12:54:48;;;;;;;17.65;15.82;;;;;;;;;;5049243;28;20049;-71
2022/01/23 12:57:26;;;;;;;18.42;16.40;;;;;;;;;;5040083;28;20475;-71
2022/01/23 12:59:54;;;;;;;17.45;15.73;;;;;;;;;;5045573;28;20040;-71
2022/01/23 13:02:22;;;;;;;17.38;15.38;;;;;;;;;;5052503;28;20115;-71
2022/01/23 13:04:50;;;;;;;19.35;17.02;;;;;;;;;;5048535;28;20072;-71
2022/01/23 13:13:11;;;;;;;16.83;15.02;;;;;;;;;;5052257;28;20039;-71
2022/01/23 13:31:47;;;;;;;11.90;11.00;;;;;;;;;;5061198;28;20044;-71
2022/01/23 13:34:33;;;;;;;12.25;11.30;;;;;;;;;;5050430;28;20087;-70
2022/01/23 13:37:04;;;;;;;13.77;12.63;;;;;;;;;;5045758;28;20036;-72
2022/01/23 13:39:34;;;;;;;14.57;13.38;;;;;;;;;;5054145;28;20048;-72
2022/01/23 13:51:43;;;;;;;14.15;13.00;;;;;;;;;;5046697;28;20151;-70
2022/01/23 14:00:07;;;;;;;14.38;12.98;;;;;;;;;;5051861;28;20029;-72
2022/01/23 14:02:46;;;;;;;14.57;13.32;;;;;;;;;;5047057;28;20675;-71
2022/01/23 14:05:17;;;;;;;13.80;12.60;;;;;;;;;;5045814;28;20036;-71
2022/01/23 14:07:53;;;;;;;22.92;19.45;;;;;;;;;;5043518;28;20039;-71
2022/01/23 14:10:25;;;;;;;14.68;13.38;;;;;;;;;;5046219;28;20123;-71
2022/01/23 14:12:53;;;;;;;14.68;13.35;;;;;;;;;;5044682;28;20033;-71
2022/01/23 14:15:28;;;;;;;13.82;12.55;;;;;;;;;;5047104;28;20099;-71
2022/01/23 14:18:07;;;;;;;13.63;12.50;;;;;;;;;;5046733;28;20498;-72
2022/01/23 14:20:37;;;;;;;13.55;12.55;;;;;;;;;;5050668;28;20040;-71
2022/01/23 14:23:29;;;;;;;13.38;12.27;;;;;;;;;;5051296;28;20109;-71
2022/01/23 14:26:00;;;;;;;14.23;12.93;;;;;;;;;;5049246;28;20131;-71
2022/01/23 14:28:37;;;;;;;14.00;12.80;;;;;;;;;;5048610;28;20552;-72
2022/01/23 14:31:24;;;;;;;12.90;11.90;;;;;;;;;;5047367;28;20116;-71
2022/01/23 14:33:56;;;;;;;13.38;12.27;;;;;;;;;;5052021;28;20128;-72
2022/01/23 14:36:24;;;;;;;13.75;12.55;;;;;;;;;;5050671;28;20040;-72
2022/01/23 14:39:10;;;;;;;13.85;12.68;;;;;;;;;;5048299;28;20029;-72
2022/01/23 14:41:39;;;;;;;13.82;12.70;;;;;;;;;;5053348;28;20041;-71
2022/01/23 14:44:23;;;;;;;13.30;12.30;;;;;;;;;;5050274;28;20037;-71
2022/01/23 14:46:52;;;;;;;12.88;11.88;;;;;;;;;;5047352;28;20323;-71
2022/01/23 14:49:24;;;;;;;14.15;12.95;;;;;;;;;;5046532;28;20347;-71
2022/01/23 14:51:52;;;;;;;14.13;13.02;;;;;;;;;;5049701;28;20047;-71
2022/01/23 14:54:19;;;;;;;14.77;13.48;;;;;;;;;;5048360;28;20045;-71
2022/01/23 14:56:45;;;;;;;15.38;13.98;;;;;;;;;;5047538;28;20032;-71
2022/01/23 14:59:12;;;;;;;14.63;13.40;;;;;;;;;;5049536;28;20039;-71
2022/01/23 15:01:39;;;;;;;14.88;13.50;;;;;;;;;;5049650;28;20067;-71
2022/01/23 15:04:08;;;;;;;14.65;13.40;;;;;;;;;;5045524;28;20045;-71
2022/01/23 15:06:42;;;;;;;15.82;14.32;;;;;;;;;;5057527;28;20095;-71
2022/01/23 15:09:10;;;;;;;14.85;13.55;;;;;;;;;;5051101;28;20044;-71
2022/01/23 15:11:37;;;;;;;20.38;18.58;;;;;;;;;;5050170;28;20033;-70
2022/01/23 15:14:05;;;;;;;15.40;13.98;;;;;;;;;;5059344;28;20139;-71
2022/01/23 15:16:31;;;;;;;15.68;14.20;;;;;;;;;;5056024;28;20119;-70
2022/01/23 15:18:56;;;;;;;13.75;12.55;;;;;;;;;;5053799;28;20182;-71
2022/01/23 15:21:22;;;;;;;14.45;12.98;;;;;;;;;;5049346;28;20340;-70
2022/01/23 15:23:54;;;;;;;14.25;13.05;;;;;;;;;;5054308;28;20036;-71
2022/01/23 15:26:20;;;;;;;14.40;13.18;;;;;;;;;;5059185;28;20033;-70
2022/01/23 15:28:46;;;;;;;14.63;13.32;;;;;;;;;;5047432;28;20041;-70
2022/01/23 15:31:11;;;;;;;13.55;12.45;;;;;;;;;;5045470;28;20087;-71
2022/01/23 15:33:37;;;;;;;15.20;13.90;;;;;;;;;;5048864;28;20056;-70
2022/01/23 15:36:03;;;;;;;14.55;13.27;;;;;;;;;;5049612;28;20041;-70
2022/01/23 15:38:30;;;;;;;15.98;14.40;;;;;;;;;;5045742;28;20043;-71
2022/01/23 15:40:56;;;;;;;16.08;14.45;;;;;;;;;;5052172;28;20032;-70
2022/01/23 15:43:21;;;;;;;15.93;14.43;;;;;;;;;;5030453;28;20057;-70
2022/01/23 15:45:47;;;;;;;13.15;12.10;;;;;;;;;;5046112;28;20102;-72
2022/01/23 15:48:13;;;;;;;12.63;11.73;;;;;;;;;;5052888;28;20045;-71
2022/01/23 15:50:39;;;;;;;13.77;12.63;;;;;;;;;;5047313;28;20056;-69
2022/01/23 15:53:04;;;;;;;19.83;16.00;;;;;;;;;;5050445;28;20060;-70
2022/01/23 15:55:30;;;;;;;15.63;14.20;;;;;;;;;;5057094;28;20051;-70
2022/01/23 15:57:56;;;;;;;15.68;14.18;;;;;;;;;;5049595;28;20037;-70
2022/01/23 16:00:23;;;;;;;18.95;16.95;;;;;;;;;;5057996;28;20051;-71
2022/01/23 16:02:49;;;;;;;19.15;17.17;;;;;;;;;;5047020;28;20028;-70
2022/01/23 16:05:17;;;;;;;16.25;14.75;;;;;;;;;;5069044;28;20562;-71
2022/01/23 16:07:43;;;;;;;17.30;15.60;;;;;;;;;;5046193;28;20033;-71
2022/01/23 16:10:09;;;;;;;21.85;18.20;;;;;;;;;;5051818;28;20051;-70
2022/01/23 16:12:37;;;;;;;16.60;14.93;;;;;;;;;;5051971;28;20079;-70
2022/01/23 16:15:05;;;;;;;17.83;15.80;;;;;;;;;;5050779;28;20029;-71
2022/01/23 16:17:31;;;;;;;16.73;14.95;;;;;;;;;;5049098;28;20064;-71
2022/01/23 16:19:58;;;;;;;16.48;15.07;;;;;;;;;;5047870;28;20099;-71
2022/01/23 16:22:24;;;;;;;19.15;17.15;;;;;;;;;;5048198;28;20166;-70
2022/01/23 16:24:50;;;;;;;18.85;17.00;;;;;;;;;;5039918;28;20033;-70
2022/01/23 16:27:16;;;;;;;17.17;15.68;;;;;;;;;;5053363;28;20273;-71
2022/01/23 16:29:42;;;;;;;16.05;14.45;;;;;;;;;;5046585;28;20041;-70
2022/01/23 16:32:08;;;;;;;19.88;18.17;;;;;;;;;;5046671;28;20040;-69
2022/01/23 16:34:36;;;;;;;19.92;18.08;;;;;;;;;;5042530;28;20056;-70
2022/01/23 16:37:03;;;;;;;30.20;20.13;;;;;;;;;;5050018;28;20456;-70
2022/01/23 16:39:29;;;;;;;20.80;16.42;;;;;;;;;;5053095;28;20107;-71
2022/01/23 16:41:55;;;;;;;24.45;21.67;;;;;;;;;;5049642;28;20119;-70
2022/01/23 16:44:23;;;;;;;19.05;17.08;;;;;;;;;;5048753;28;20076;-70
2022/01/23 16:46:48;;;;;;;16.48;15.07;;;;;;;;;;5059953;28;20234;-71
2022/01/23 16:49:14;;;;;;;13.95;12.85;;;;;;;;;;5046980;28;20043;-70
2022/01/23 16:51:41;;;;;;;15.43;14.10;;;;;;;;;;5045045;28;20052;-70
2022/01/23 16:54:11;;;;;;;15.23;13.95;;;;;;;;;;5046002;28;20041;-70
2022/01/23 16:56:39;;;;;;;15.68;14.27;;;;;;;;;;5046290;28;20471;-70
2022/01/23 16:59:06;;;;;;;15.52;14.13;;;;;;;;;;5046327;28;20421;-70
2022/01/23 17:01:32;;;;;;;15.18;14.00;;;;;;;;;;5048768;28;20045;-71
2022/01/23 17:03:58;;;;;;;16.27;14.88;;;;;;;;;;5050174;28;20079;-71
2022/01/23 17:06:25;;;;;;;19.50;17.70;;;;;;;;;;5046788;28;20120;-69
2022/01/23 17:08:51;;;;;;;22.98;20.27;;;;;;;;;;5047545;28;20492;-70
2022/01/23 17:11:17;;;;;;;16.25;14.70;;;;;;;;;;5049612;28;20029;-71
2022/01/23 17:13:44;;;;;;;16.33;14.65;;;;;;;;;;5047402;28;20025;-70
2022/01/23 17:16:14;;;;;;;17.13;15.63;;;;;;;;;;5045630;28;20115;-69
2022/01/23 17:18:41;;;;;;;15.65;14.30;;;;;;;;;;5044659;28;20178;-71
2022/01/23 17:21:07;;;;;;;16.70;15.10;;;;;;;;;;5045653;28;20311;-71
2022/01/23 17:23:33;;;;;;;22.65;17.55;;;;;;;;;;5050396;28;20522;-70
2022/01/23 17:25:58;;;;;;;21.27;17.63;;;;;;;;;;5051621;28;20064;-70
2022/01/23 17:28:24;;;;;;;34.90;27.55;;;;;;;;;;5045696;28;20079;-70
2022/01/23 17:30:50;;;;;;;14.88;13.68;;;;;;;;;;5057082;28;20036;-70
2022/01/23 17:33:15;;;;;;;21.65;18.40;;;;;;;;;;5049775;28;20036;-69
2022/01/23 17:35:41;;;;;;;28.08;24.63;;;;;;;;;;5049552;28;20025;-71
2022/01/23 17:38:06;;;;;;;21.30;19.15;;;;;;;;;;5046703;28;20484;-71
2022/01/23 17:40:32;;;;;;;15.48;14.07;;;;;;;;;;5050646;28;20040;-69
2022/01/23 17:42:59;;;;;;;17.67;16.05;;;;;;;;;;5052534;28;20035;-69
2022/01/23 17:45:30;;;;;;;16.65;15.30;;;;;;;;;;5045237;28;20048;-69
2022/01/23 17:48:07;;;;;;;14.23;13.07;;;;;;;;;;5059403;28;20069;-70
2022/01/23 17:50:35;;;;;;;15.00;13.57;;;;;;;;;;5058218;28;20033;-69
2022/01/23 17:53:01;;;;;;;15.25;13.88;;;;;;;;;;5049000;28;20192;-69
2022/01/23 17:55:29;;;;;;;14.77;13.57;;;;;;;;;;5049031;28;20128;-69
2022/01/23 17:57:55;;;;;;;15.88;14.57;;;;;;;;;;5048489;28;20284;-69
2022/01/23 18:00:21;;;;;;;15.25;13.90;;;;;;;;;;5049766;28;20065;-69
2022/01/23 18:02:48;;;;;;;14.48;13.38;;;;;;;;;;5049414;28;20290;-69
2022/01/23 18:05:13;;;;;;;15.32;14.02;;;;;;;;;;5058553;28;20515;-72